Time;durP1;ratioP1;P1;durP2;ratioP2;P2;SDS_P1;SDS_P2;PMS_P1;PMS_P2;Temp;Humidity;BMP_temperature;BMP_pressure;BME280_temperature;BME280_humidity;BME280_pressure;Samples;Min_cycle;Max_cycle;Signal;HPM_P1;HPM_P2
2023/11/13 00:02:23;;;;;;;6.20;2.93;;;8.20;50.80;;;;;;4992196;28;20449;-71
2023/11/13 00:04:48;;;;;;;4.03;2.73;;;8.20;50.80;;;;;;4992298;28;20845;-71
2023/11/13 00:07:14;;;;;;;5.33;3.63;;;8.20;50.80;;;;;;4992268;28;20179;-70
2023/11/13 00:09:39;;;;;;;3.90;3.00;;;8.30;50.90;;;;;;4992349;28;20182;-71
2023/11/13 00:12:07;;;;;;;4.60;2.20;;;8.30;50.90;;;;;;4991965;28;20202;-71
2023/11/13 00:14:32;;;;;;;4.20;2.70;;;8.40;51.60;;;;;;4992211;28;20254;-71
2023/11/13 00:17:00;;;;;;;6.70;2.67;;;8.40;51.60;;;;;;4992473;28;20836;-71
2023/11/13 00:19:26;;;;;;;16.23;3.47;;;8.50;51.10;;;;;;4996312;28;20663;-71
2023/11/13 00:21:51;;;;;;;5.17;2.50;;;8.60;51.10;;;;;;4995883;28;20435;-71
2023/11/13 00:24:17;;;;;;;3.20;2.30;;;8.70;52.40;;;;;;4996114;28;20882;-71
2023/11/13 00:26:42;;;;;;;4.20;2.00;;;8.80;51.20;;;;;;4996154;28;20544;-71
2023/11/13 00:29:08;;;;;;;7.53;2.13;;;8.90;50.20;;;;;;4996392;28;20226;-72
2023/11/13 00:31:34;;;;;;;3.30;1.63;;;8.90;48.80;;;;;;4995977;28;20204;-72
2023/11/13 00:33:59;;;;;;;9.67;3.40;;;9.00;48.60;;;;;;4994621;28;20178;-72
2023/11/13 00:36:25;;;;;;;5.90;1.77;;;9.00;46.90;;;;;;4994674;28;20242;-70
2023/11/13 00:38:50;;;;;;;13.10;2.90;;;9.10;46.60;;;;;;4994682;28;20727;-69
2023/11/13 00:41:16;;;;;;;13.03;3.50;;;9.10;46.50;;;;;;4994674;28;20263;-70
2023/11/13 00:43:43;;;;;;;2.67;1.80;;;9.20;45.20;;;;;;4994277;28;20200;-70
2023/11/13 00:46:08;;;;;;;3.50;1.93;;;9.20;46.70;;;;;;4994574;28;20262;-70
2023/11/13 00:48:37;;;;;;;2.10;1.30;;;9.30;44.50;;;;;;4994422;28;20926;-70
2023/11/13 00:51:04;;;;;;;3.97;1.40;;;9.30;44.80;;;;;;4994374;28;20415;-69
2023/11/13 00:53:36;;;;;;;3.67;1.57;;;9.30;44.00;;;;;;4994141;28;20431;-71
2023/11/13 00:56:04;;;;;;;6.47;2.23;;;9.30;45.20;;;;;;4994368;28;20415;-70
2023/11/13 00:58:29;;;;;;;10.80;1.77;;;9.40;45.00;;;;;;4994279;28;20755;-70
2023/11/13 01:00:55;;;;;;;3.27;1.80;;;9.40;44.10;;;;;;4994249;28;20419;-70
2023/11/13 01:03:20;;;;;;;2.23;1.23;;;9.40;45.00;;;;;;4994163;28;20673;-70
2023/11/13 01:05:46;;;;;;;2.80;1.57;;;9.40;44.30;;;;;;4994213;28;20554;-70
2023/11/13 01:08:11;;;;;;;3.30;1.40;;;9.40;44.80;;;;;;4994262;28;20179;-70
2023/11/13 01:10:37;;;;;;;9.03;1.80;;;9.50;45.90;;;;;;4994130;28;20668;-69
2023/11/13 01:13:03;;;;;;;2.60;1.80;;;9.50;43.70;;;;;;4994118;28;20289;-70
2023/11/13 01:15:28;;;;;;;2.63;1.20;;;9.50;44.00;;;;;;4994086;28;20181;-70
2023/11/13 01:17:54;;;;;;;3.20;1.70;;;9.50;43.60;;;;;;4994225;28;20181;-70
2023/11/13 01:20:19;;;;;;;4.53;2.20;;;9.60;43.70;;;;;;4994112;28;20179;-69
2023/11/13 01:22:45;;;;;;;8.23;1.90;;;9.60;43.70;;;;;;4993783;28;20681;-70
2023/11/13 01:25:10;;;;;;;3.20;1.00;;;9.60;43.90;;;;;;4993920;28;20681;-71
2023/11/13 01:27:36;;;;;;;3.47;1.20;;;9.60;43.60;;;;;;4976800;28;20600;-70
2023/11/13 01:30:02;;;;;;;3.77;1.27;;;9.60;44.10;;;;;;4992937;28;20181;-70
2023/11/13 01:32:27;;;;;;;2.38;1.52;;;9.70;42.90;;;;;;4958222;28;1061970;-69
2023/11/13 01:34:53;;;;;;;2.17;1.20;;;9.70;42.30;;;;;;4995138;28;20526;-71
2023/11/13 01:37:19;;;;;;;3.23;1.63;;;9.80;42.70;;;;;;4994988;28;20216;-70
2023/11/13 01:39:44;;;;;;;3.93;1.43;;;9.70;41.50;;;;;;4993515;28;20192;-70
2023/11/13 01:42:10;;;;;;;4.30;1.70;;;9.70;42.00;;;;;;4994534;28;20210;-70
2023/11/13 01:44:36;;;;;;;3.00;1.40;;;9.60;44.10;;;;;;4994710;28;20244;-69
2023/11/13 01:47:03;;;;;;;8.40;2.50;;;9.50;43.00;;;;;;4994839;28;20263;-70
2023/11/13 01:49:29;;;;;;;4.63;1.63;;;9.50;45.10;;;;;;4994988;28;20165;-71
2023/11/13 01:51:55;;;;;;;6.90;2.33;;;9.40;46.00;;;;;;4994595;28;20440;-70
2023/11/13 01:54:22;;;;;;;8.00;2.60;;;9.30;47.50;;;;;;4994522;28;20418;-70
2023/11/13 01:56:48;;;;;;;2.97;1.90;;;9.30;48.00;;;;;;4994524;28;20215;-70
2023/11/13 01:59:15;;;;;;;2.20;1.60;;;9.30;48.90;;;;;;4994417;28;20476;-69
2023/11/13 02:01:41;;;;;;;3.73;2.13;;;9.20;49.20;;;;;;4994260;28;20489;-71
2023/11/13 02:04:07;;;;;;;4.27;1.40;;;9.20;50.20;;;;;;4994279;28;20411;-70
2023/11/13 02:06:32;;;;;;;4.10;1.67;;;9.20;51.00;;;;;;4994293;28;20467;-71
2023/11/13 02:08:58;;;;;;;2.70;1.43;;;9.20;50.90;;;;;;4976750;28;20427;-71
2023/11/13 02:11:25;;;;;;;5.40;1.73;;;9.20;51.60;;;;;;4994218;28;20186;-71
2023/11/13 02:13:53;;;;;;;2.53;1.37;;;9.30;50.60;;;;;;4993822;28;20196;-70
2023/11/13 02:16:19;;;;;;;4.10;2.07;;;9.30;51.20;;;;;;4994223;28;20995;-71
2023/11/13 02:18:45;;;;;;;2.43;1.40;;;9.30;51.60;;;;;;4994139;28;20464;-71
2023/11/13 02:21:11;;;;;;;3.73;1.17;;;9.30;51.20;;;;;;4994001;28;20494;-70
2023/11/13 02:23:37;;;;;;;3.53;1.23;;;9.30;50.00;;;;;;4993708;28;20217;-70
2023/11/13 02:26:11;;;;;;;3.63;1.50;;;9.30;50.10;;;;;;4993997;28;20462;-71
2023/11/13 02:28:37;;;;;;;1.90;1.00;;;9.40;50.60;;;;;;4993912;28;20225;-70
2023/11/13 02:31:03;;;;;;;1.97;1.10;;;9.40;51.60;;;;;;4993886;28;20807;-70
2023/11/13 02:33:28;;;;;;;1.50;0.60;;;9.60;52.00;;;;;;4993496;28;20216;-70
2023/11/13 02:35:54;;;;;;;2.63;0.90;;;9.70;52.10;;;;;;4993791;28;20427;-71
2023/11/13 02:38:20;;;;;;;1.40;0.57;;;9.80;52.10;;;;;;4993734;28;20205;-71
2023/11/13 02:40:45;;;;;;;2.90;0.80;;;9.90;52.20;;;;;;4993278;28;20191;-71
2023/11/13 02:43:11;;;;;;;1.30;0.63;;;10.00;49.80;;;;;;4993352;28;20283;-70
2023/11/13 02:45:36;;;;;;;1.97;0.90;;;10.00;47.20;;;;;;4993558;28;20211;-71
2023/11/13 02:48:02;;;;;;;2.10;0.87;;;10.10;47.00;;;;;;4976405;28;20180;-71
2023/11/13 02:50:30;;;;;;;2.90;0.87;;;10.20;46.60;;;;;;4993527;28;20674;-71
2023/11/13 02:52:57;;;;;;;1.60;0.70;;;10.30;46.60;;;;;;4993102;28;20193;-70
2023/11/13 02:55:22;;;;;;;2.30;0.77;;;10.30;46.00;;;;;;4993395;28;20422;-71
2023/11/13 02:57:50;;;;;;;2.13;1.20;;;10.40;44.20;;;;;;4993342;28;20432;-71
2023/11/13 03:00:16;;;;;;;4.60;0.70;;;10.50;44.10;;;;;;4993455;28;20183;-71
2023/11/13 03:02:41;;;;;;;2.50;1.03;;;10.50;44.60;;;;;;4992980;28;20529;-71
2023/11/13 03:05:08;;;;;;;1.50;0.77;;;10.60;44.00;;;;;;4993099;28;20235;-71
2023/11/13 03:07:34;;;;;;;3.53;1.00;;;10.70;44.50;;;;;;4993218;28;20184;-70
2023/11/13 03:10:00;;;;;;;2.43;1.10;;;10.70;43.40;;;;;;4993217;28;20416;-71
2023/11/13 03:12:26;;;;;;;4.57;1.30;;;10.70;41.90;;;;;;4992745;28;20208;-70
2023/11/13 03:14:52;;;;;;;7.03;1.50;;;10.80;41.40;;;;;;4991829;28;20184;-71
2023/11/13 03:17:18;;;;;;;2.87;2.03;;;10.80;40.60;;;;;;4993022;28;20841;-70
2023/11/13 03:19:44;;;;;;;3.03;1.13;;;10.90;41.30;;;;;;4992946;28;20180;-71
2023/11/13 03:22:13;;;;;;;8.27;1.93;;;10.90;40.90;;;;;;4992693;28;20788;-71
2023/11/13 03:24:39;;;;;;;3.53;1.43;;;10.90;40.00;;;;;;4991639;28;20560;-71
2023/11/13 03:27:05;;;;;;;4.87;1.63;;;11.00;40.10;;;;;;4992838;28;20416;-71
2023/11/13 03:29:30;;;;;;;2.87;1.23;;;11.00;37.70;;;;;;4992819;28;20204;-71
2023/11/13 03:31:56;;;;;;;4.23;1.37;;;11.10;37.10;;;;;;4992645;28;20222;-70
2023/11/13 03:34:21;;;;;;;5.93;1.70;;;11.10;37.50;;;;;;4993013;28;20181;-69
2023/11/13 03:36:47;;;;;;;3.47;1.73;;;11.20;35.20;;;;;;4992997;28;20194;-71
2023/11/13 03:39:13;;;;;;;8.57;2.20;;;11.20;36.00;;;;;;4992904;28;20189;-70
2023/11/13 03:41:38;;;;;;;3.07;1.80;;;11.20;36.40;;;;;;4992565;28;20273;-70
2023/11/13 03:44:04;;;;;;;3.30;1.50;;;11.20;37.20;;;;;;4992595;28;20427;-71
2023/11/13 03:46:30;;;;;;;4.90;2.07;;;11.20;37.80;;;;;;4992409;28;20701;-71
2023/11/13 03:48:55;;;;;;;6.20;1.40;;;11.20;39.70;;;;;;4992582;28;20447;-71
2023/11/13 03:51:23;;;;;;;5.80;1.40;;;11.10;40.00;;;;;;4992247;28;20651;-71
2023/11/13 03:53:49;;;;;;;6.33;2.00;;;11.10;41.10;;;;;;4992211;28;20202;-71
2023/11/13 03:56:15;;;;;;;6.60;1.90;;;11.10;40.70;;;;;;4992509;28;20408;-71
2023/11/13 03:58:40;;;;;;;3.60;1.90;;;11.20;41.30;;;;;;4992394;28;20425;-71
2023/11/13 04:01:08;;;;;;;7.33;2.13;;;11.20;41.30;;;;;;4992416;28;20191;-70
2023/11/13 04:03:33;;;;;;;5.50;2.63;;;11.20;38.90;;;;;;4992174;28;20207;-72
2023/11/13 04:05:59;;;;;;;4.60;2.57;;;11.20;40.30;;;;;;4992492;28;20464;-71
2023/11/13 04:08:25;;;;;;;6.70;2.13;;;11.10;40.60;;;;;;4992457;28;20183;-71
2023/11/13 04:10:51;;;;;;;5.20;1.90;;;11.00;42.20;;;;;;4992495;28;20552;-70
2023/11/13 04:13:18;;;;;;;5.33;2.20;;;11.00;42.20;;;;;;4992183;28;20495;-72
2023/11/13 04:15:44;;;;;;;6.97;2.53;;;10.90;42.80;;;;;;4992447;28;20447;-72
2023/11/13 04:18:10;;;;;;;7.50;2.27;;;10.90;43.40;;;;;;4992325;28;20800;-72
2023/11/13 04:20:36;;;;;;;8.00;2.30;;;10.90;42.10;;;;;;4992296;28;20501;-72
2023/11/13 04:23:02;;;;;;;6.43;1.80;;;11.00;42.90;;;;;;4992033;28;20197;-72
2023/11/13 04:25:27;;;;;;;7.87;3.40;;;10.90;42.10;;;;;;4992186;28;20530;-72
2023/11/13 04:27:53;;;;;;;4.33;2.60;;;10.90;42.10;;;;;;4992200;28;20178;-72
2023/11/13 04:30:18;;;;;;;8.27;1.90;;;11.00;42.10;;;;;;4992215;28;20259;-71
2023/11/13 04:32:45;;;;;;;15.93;2.27;;;11.00;41.20;;;;;;4991688;28;20217;-72
2023/11/13 04:35:11;;;;;;;3.17;2.13;;;11.00;40.50;;;;;;4992262;28;20265;-72
2023/11/13 04:37:36;;;;;;;5.67;1.70;;;11.00;39.20;;;;;;4992142;28;20498;-72
2023/11/13 04:40:04;;;;;;;3.53;1.97;;;11.00;39.50;;;;;;4992464;28;20726;-72
2023/11/13 04:42:30;;;;;;;4.37;2.40;;;11.00;39.70;;;;;;4991823;28;20200;-72
2023/11/13 04:44:56;;;;;;;7.07;2.63;;;11.00;38.30;;;;;;4992025;28;20464;-72
2023/11/13 04:47:22;;;;;;;6.50;3.00;;;11.00;38.60;;;;;;4992135;28;20420;-72
2023/11/13 04:49:47;;;;;;;9.60;2.53;;;11.00;39.20;;;;;;4992169;28;20181;-72
2023/11/13 04:52:13;;;;;;;5.67;2.67;;;10.90;38.40;;;;;;4992136;28;20200;-72
2023/11/13 04:54:38;;;;;;;7.87;1.83;;;10.90;38.00;;;;;;4990944;28;20194;-72
2023/11/13 04:57:04;;;;;;;6.63;2.13;;;11.00;38.70;;;;;;4992201;28;20655;-72
2023/11/13 04:59:31;;;;;;;7.63;1.83;;;11.00;37.50;;;;;;4991973;28;20253;-71
2023/11/13 05:01:56;;;;;;;4.80;2.10;;;11.10;38.20;;;;;;4991509;28;20197;-72
2023/11/13 05:04:22;;;;;;;4.90;2.23;;;11.10;37.20;;;;;;4994200;28;20420;-71
2023/11/13 05:06:48;;;;;;;7.03;3.00;;;11.20;35.90;;;;;;4995486;28;20297;-72
2023/11/13 05:09:14;;;;;;;12.70;3.93;;;11.20;35.60;;;;;;4995514;28;20244;-71
2023/11/13 05:11:40;;;;;;;5.03;2.70;;;11.20;34.50;;;;;;4995237;28;20176;-71
2023/11/13 05:14:06;;;;;;;5.10;2.30;;;11.10;35.30;;;;;;4995289;28;20787;-72
2023/11/13 05:16:31;;;;;;;7.30;3.60;;;11.00;35.40;;;;;;4995278;28;20420;-72
2023/11/13 05:18:57;;;;;;;8.33;2.50;;;11.00;36.20;;;;;;4995311;28;20191;-72
2023/11/13 05:21:23;;;;;;;4.57;2.37;;;11.00;36.00;;;;;;4995299;28;20431;-72
2023/11/13 05:23:49;;;;;;;7.20;2.80;;;10.90;37.00;;;;;;4995137;28;20192;-72
2023/11/13 05:26:16;;;;;;;3.43;2.20;;;10.90;36.50;;;;;;4995152;28;20465;-72
2023/11/13 05:28:42;;;;;;;9.43;2.53;;;10.90;36.00;;;;;;4995259;28;20825;-72
2023/11/13 05:31:09;;;;;;;9.17;3.60;;;10.90;37.00;;;;;;4995240;28;20439;-72
2023/11/13 05:33:34;;;;;;;9.47;3.03;;;10.90;37.00;;;;;;4995026;28;20463;-72
2023/11/13 05:36:00;;;;;;;5.37;2.83;;;10.90;38.70;;;;;;4995481;28;20493;-70
2023/11/13 05:38:26;;;;;;;4.83;2.23;;;11.00;37.00;;;;;;4995601;28;20184;-70
2023/11/13 05:40:51;;;;;;;5.70;3.00;;;11.00;36.20;;;;;;4995067;28;20230;-71
2023/11/13 05:43:17;;;;;;;9.90;4.93;;;11.00;35.50;;;;;;4995010;28;20295;-71
2023/11/13 05:45:43;;;;;;;11.77;2.97;;;10.90;35.00;;;;;;4994752;28;20455;-68
2023/11/13 05:48:09;;;;;;;5.73;3.17;;;10.80;35.80;;;;;;4995188;28;20176;-70
2023/11/13 05:50:35;;;;;;;5.67;2.50;;;10.80;36.20;;;;;;4994932;28;20310;-70
2023/11/13 05:53:00;;;;;;;4.37;2.47;;;10.80;36.90;;;;;;4994279;28;20439;-70
2023/11/13 05:55:26;;;;;;;5.83;2.17;;;10.80;36.50;;;;;;4994515;28;20411;-69
2023/11/13 05:57:52;;;;;;;10.83;2.83;;;10.80;35.40;;;;;;4994804;28;20184;-70
2023/11/13 06:00:18;;;;;;;6.97;2.17;;;10.80;34.90;;;;;;4994590;28;20364;-70
2023/11/13 06:02:47;;;;;;;10.67;3.77;;;10.90;36.30;;;;;;4994243;28;20971;-72
2023/11/13 06:05:13;;;;;;;6.67;2.83;;;10.90;34.40;;;;;;4994711;28;20826;-71
2023/11/13 06:07:39;;;;;;;11.20;3.80;;;10.90;33.90;;;;;;4994541;28;20412;-70
2023/11/13 06:10:07;;;;;;;6.17;2.13;;;10.90;32.90;;;;;;4994415;28;20856;-71
2023/11/13 06:12:33;;;;;;;11.70;3.10;;;10.90;31.70;;;;;;4993956;28;20283;-72
2023/11/13 06:14:59;;;;;;;11.73;3.20;;;10.90;31.80;;;;;;4993553;28;20866;-72
2023/11/13 06:17:25;;;;;;;4.00;2.50;;;10.90;32.00;;;;;;4994301;28;20423;-70
2023/11/13 06:19:51;;;;;;;8.90;3.10;;;10.90;31.00;;;;;;4994497;28;20423;-71
2023/11/13 06:22:17;;;;;;;6.83;3.20;;;10.90;31.80;;;;;;4993866;28;21000;-71
2023/11/13 06:24:43;;;;;;;5.93;2.70;;;10.90;26.20;;;;;;4993963;28;20458;-71
2023/11/13 06:27:09;;;;;;;4.70;3.00;;;11.00;26.90;;;;;;4994112;28;20827;-71
2023/11/13 06:29:35;;;;;;;5.47;2.00;;;11.00;23.30;;;;;;4993891;28;20407;-72
2023/11/13 06:32:01;;;;;;;4.20;2.10;;;11.00;22.50;;;;;;4993484;28;20595;-71
2023/11/13 06:34:31;;;;;;;7.77;2.17;;;11.00;20.70;;;;;;4993913;28;20177;-71
2023/11/13 06:36:56;;;;;;;7.00;2.70;;;11.00;19.90;;;;;;4992369;28;20436;-70
2023/11/13 06:39:22;;;;;;;7.73;3.33;;;11.00;19.10;;;;;;4993884;28;20432;-71
2023/11/13 06:41:48;;;;;;;6.60;2.37;;;10.90;17.70;;;;;;4993635;28;20556;-71
2023/11/13 06:44:14;;;;;;;4.43;1.83;;;11.00;18.10;;;;;;4993569;28;20435;-72
2023/11/13 06:46:40;;;;;;;6.50;2.43;;;10.90;17.10;;;;;;4993500;28;20467;-71
2023/11/13 06:49:07;;;;;;;11.67;1.67;;;10.90;16.70;;;;;;4993493;28;20177;-71
2023/11/13 06:51:33;;;;;;;13.97;2.80;;;10.90;16.20;;;;;;4993558;28;20427;-71
2023/11/13 06:53:59;;;;;;;7.40;2.60;;;10.90;16.20;;;;;;4993375;28;20919;-70
2023/11/13 06:56:25;;;;;;;5.30;1.97;;;10.90;15.30;;;;;;4993495;28;20419;-71
2023/11/13 06:58:50;;;;;;;7.40;2.73;;;10.90;16.40;;;;;;4993439;28;20427;-71
2023/11/13 07:01:16;;;;;;;5.07;2.70;;;10.80;15.30;;;;;;4993377;28;20679;-71
2023/11/13 07:03:43;;;;;;;3.60;1.93;;;10.80;15.00;;;;;;4991733;28;20208;-72
2023/11/13 07:06:10;;;;;;;8.60;2.37;;;10.90;15.60;;;;;;4993261;28;20295;-72
2023/11/13 07:08:36;;;;;;;7.03;2.60;;;10.90;15.90;;;;;;4993493;28;20836;-72
2023/11/13 07:11:02;;;;;;;2.80;2.00;;;10.90;15.50;;;;;;4993190;28;20496;-70
2023/11/13 07:13:29;;;;;;;4.77;1.50;;;10.90;16.20;;;;;;4993105;28;20573;-71
2023/11/13 07:15:55;;;;;;;3.70;1.83;;;10.90;15.70;;;;;;4993008;28;20180;-70
2023/11/13 07:18:21;;;;;;;5.83;2.30;;;10.90;15.10;;;;;;4993095;28;20445;-71
2023/11/13 07:20:46;;;;;;;3.43;1.43;;;10.80;14.60;;;;;;4993175;28;20187;-71
2023/11/13 07:23:16;;;;;;;3.60;0.87;;;;;;;;;;4992778;28;20212;-71
2023/11/13 07:25:45;;;;;;;3.10;1.03;;;;;;;;;;4993016;28;20212;-71
2023/11/13 07:28:11;;;;;;;3.00;1.67;;;10.80;15.10;;;;;;4992773;28;20419;-71
2023/11/13 07:30:37;;;;;;;4.70;1.80;;;10.70;15.10;;;;;;4993034;28;20510;-71
2023/11/13 07:33:03;;;;;;;4.90;2.03;;;10.70;16.20;;;;;;4975070;28;20544;-72
2023/11/13 07:35:29;;;;;;;3.77;1.80;;;10.80;17.00;;;;;;4992875;28;20427;-71
2023/11/13 07:37:55;;;;;;;4.07;1.93;;;10.70;17.20;;;;;;4992817;28;20474;-70
2023/11/13 07:40:20;;;;;;;4.77;2.40;;;10.70;17.30;;;;;;4992822;28;20184;-70
2023/11/13 07:42:48;;;;;;;2.50;1.27;;;10.70;18.60;;;;;;4992595;28;20247;-71
2023/11/13 07:45:14;;;;;;;6.27;1.93;;;10.70;18.30;;;;;;4992812;28;20200;-75
2023/11/13 07:47:40;;;;;;;7.30;2.33;;;10.80;19.90;;;;;;4992742;28;20430;-70
2023/11/13 07:50:13;;;;;;;5.37;1.90;;;10.80;19.70;;;;;;4993117;28;20259;-69
2023/11/13 07:52:41;;;;;;;3.60;1.57;;;10.80;20.20;;;;;;4992257;28;20463;-71
2023/11/13 07:55:09;;;;;;;6.13;1.93;;;10.90;20.20;;;;;;4992618;28;20430;-71
2023/11/13 07:57:37;;;;;;;2.50;1.13;;;10.90;20.60;;;;;;4992596;28;20952;-71
2023/11/13 08:00:04;;;;;;;3.73;2.20;;;11.00;21.20;;;;;;4992566;28;20424;-71
2023/11/13 08:02:30;;;;;;;4.33;1.97;;;11.00;21.20;;;;;;4992177;28;20439;-71
2023/11/13 08:04:56;;;;;;;2.17;1.27;;;10.90;22.10;;;;;;4991282;28;20459;-71
2023/11/13 08:07:21;;;;;;;2.90;1.40;;;10.90;23.20;;;;;;4993516;28;20212;-71
2023/11/13 08:09:47;;;;;;;15.77;2.37;;;11.00;23.30;;;;;;4993015;28;20180;-72
2023/11/13 08:12:13;;;;;;;4.10;2.20;;;10.90;24.20;;;;;;4992958;28;20205;-71
2023/11/13 08:14:38;;;;;;;2.63;1.80;;;10.90;24.60;;;;;;4993262;28;20177;-71
2023/11/13 08:17:04;;;;;;;3.67;1.93;;;10.80;26.00;;;;;;4993544;28;20414;-71
2023/11/13 08:19:30;;;;;;;5.90;1.70;;;10.80;27.30;;;;;;4993392;28;20184;-71
2023/11/13 08:21:55;;;;;;;3.47;2.23;;;10.70;28.50;;;;;;4991313;28;20211;-72
2023/11/13 08:24:21;;;;;;;3.57;2.63;;;10.80;29.80;;;;;;4992194;28;20251;-71
2023/11/13 08:26:47;;;;;;;14.07;3.77;;;10.80;29.30;;;;;;4992229;28;20219;-71
2023/11/13 08:29:15;;;;;;;6.80;3.70;;;10.70;29.60;;;;;;4992197;28;20664;-71
2023/11/13 08:31:42;;;;;;;7.27;2.30;;;10.70;31.10;;;;;;4992038;28;20184;-71
2023/11/13 08:34:07;;;;;;;4.43;2.70;;;10.70;31.50;;;;;;4992120;28;20868;-72
2023/11/13 08:36:33;;;;;;;10.10;3.43;;;10.80;31.60;;;;;;4992154;28;20507;-71
2023/11/13 08:39:00;;;;;;;10.83;3.53;;;10.70;33.50;;;;;;4994187;28;20187;-70
2023/11/13 08:41:28;;;;;;;5.37;2.60;;;10.70;34.50;;;;;;4996339;28;20180;-71
2023/11/13 08:43:55;;;;;;;5.33;2.10;;;10.70;34.80;;;;;;4995890;28;20443;-72
2023/11/13 08:46:21;;;;;;;2.60;1.67;;;10.80;34.70;;;;;;4995846;28;20518;-72
2023/11/13 08:48:47;;;;;;;6.20;2.53;;;10.80;33.30;;;;;;4996020;28;20506;-72
2023/11/13 08:51:14;;;;;;;5.07;2.20;;;10.80;35.00;;;;;;4995821;28;21102;-72
2023/11/13 08:53:42;;;;;;;5.30;3.30;;;10.90;32.90;;;;;;4995976;28;20445;-72
2023/11/13 08:56:15;;;;;;;4.73;2.77;;;11.00;33.70;;;;;;4995943;28;20424;-72
2023/11/13 08:58:44;;;;;;;3.70;2.13;;;11.10;32.50;;;;;;4995647;28;20461;-72
2023/11/13 09:01:09;;;;;;;7.27;1.83;;;11.30;31.60;;;;;;4995652;28;20419;-72
2023/11/13 09:03:35;;;;;;;3.03;2.00;;;11.50;31.50;;;;;;4995445;28;20859;-72
2023/11/13 09:06:07;;;;;;;5.00;2.43;;;11.70;31.20;;;;;;4995502;28;20229;-71
2023/11/13 09:08:35;;;;;;;5.60;2.00;;;11.80;29.50;;;;;;4995422;28;20181;-72
2023/11/13 09:11:01;;;;;;;4.37;1.93;;;12.00;27.90;;;;;;4995486;28;20420;-70
2023/11/13 09:13:27;;;;;;;2.50;1.43;;;12.00;27.50;;;;;;4995060;28;20450;-71
2023/11/13 09:15:52;;;;;;;3.10;1.77;;;12.10;27.80;;;;;;4995423;28;20852;-72
2023/11/13 09:18:22;;;;;;;3.50;1.60;;;12.20;28.20;;;;;;4995304;28;20215;-71
2023/11/13 09:20:48;;;;;;;4.03;2.00;;;12.30;25.40;;;;;;4995719;28;20172;-71
2023/11/13 09:23:15;;;;;;;9.70;4.63;;;12.50;24.30;;;;;;4994873;28;20564;-71
2023/11/13 09:25:41;;;;;;;5.80;3.50;;;12.50;24.30;;;;;;4995254;28;20259;-72
2023/11/13 09:28:07;;;;;;;5.47;2.97;;;12.70;25.30;;;;;;4995350;28;20416;-71
2023/11/13 09:30:33;;;;;;;4.57;2.60;;;12.90;24.60;;;;;;4995032;28;20407;-72
2023/11/13 09:33:01;;;;;;;3.40;2.03;;;13.10;24.20;;;;;;4995217;28;20223;-70
2023/11/13 09:35:29;;;;;;;3.53;2.63;;;13.20;24.50;;;;;;4994960;28;20178;-70
2023/11/13 09:37:56;;;;;;;3.77;2.00;;;13.30;22.40;;;;;;4994911;28;20420;-70
2023/11/13 09:40:35;;;;;;;3.10;1.37;;;13.30;22.70;;;;;;4994881;28;20439;-71
2023/11/13 09:43:18;;;;;;;4.00;1.70;;;13.30;22.70;;;;;;4994762;28;20457;-70
2023/11/13 09:45:45;;;;;;;4.47;1.43;;;13.40;20.90;;;;;;4995503;28;20948;-71
2023/11/13 09:48:20;;;;;;;4.07;1.80;;;13.50;21.10;;;;;;4994918;28;20970;-72
2023/11/13 09:50:47;;;;;;;4.00;1.40;;;13.40;20.70;;;;;;4975979;28;20427;-71
2023/11/13 09:53:15;;;;;;;3.77;1.20;;;13.50;21.70;;;;;;4994482;28;20959;-71
2023/11/13 09:55:41;;;;;;;6.00;1.60;;;13.70;18.50;;;;;;4994740;28;20923;-71
2023/11/13 09:58:07;;;;;;;4.97;1.90;;;13.80;17.40;;;;;;4994643;28;20427;-71
2023/11/13 10:00:33;;;;;;;3.73;1.73;;;13.90;18.40;;;;;;4994964;28;20932;-71
2023/11/13 10:03:00;;;;;;;3.00;1.70;;;13.90;16.70;;;;;;4994604;28;20702;-70
2023/11/13 10:05:30;;;;;;;6.17;1.67;;;14.00;16.80;;;;;;4994622;28;20468;-71
2023/11/13 10:07:56;;;;;;;4.70;1.57;;;14.20;17.00;;;;;;4994527;28;20412;-70
2023/11/13 10:10:31;;;;;;;3.67;1.70;;;14.20;14.80;;;;;;4994305;28;20431;-71
2023/11/13 10:13:01;;;;;;;5.10;1.83;;;14.30;15.20;;;;;;4994260;28;20431;-70
2023/11/13 10:15:31;;;;;;;7.90;2.13;;;14.20;14.50;;;;;;4994388;28;20419;-71
2023/11/13 10:17:59;;;;;;;5.10;2.00;;;14.10;16.30;;;;;;4994231;28;20419;-70
2023/11/13 10:20:26;;;;;;;4.33;2.40;;;14.20;17.00;;;;;;4994162;28;20424;-72
2023/11/13 10:23:03;;;;;;;2.73;1.30;;;14.20;17.00;;;;;;4993826;28;20805;-71
2023/11/13 10:25:40;;;;;;;5.07;2.00;;;14.10;16.90;;;;;;4994063;28;20980;-71
2023/11/13 10:28:08;;;;;;;4.60;2.37;;;14.10;17.90;;;;;;4994090;28;20415;-71
2023/11/13 10:30:35;;;;;;;5.83;1.97;;;14.20;17.00;;;;;;4994017;28;20420;-71
2023/11/13 10:33:14;;;;;;;6.83;2.00;;;14.20;17.00;;;;;;4993502;28;20475;-71
2023/11/13 10:35:42;;;;;;;8.60;2.63;;;14.30;17.60;;;;;;4994013;28;20430;-70
2023/11/13 10:38:13;;;;;;;3.70;1.83;;;14.30;17.00;;;;;;4993884;28;20431;-71
2023/11/13 10:40:43;;;;;;;12.93;1.97;;;14.30;17.30;;;;;;4993768;28;20420;-71
2023/11/13 10:43:27;;;;;;;4.03;1.67;;;14.20;17.00;;;;;;4993515;28;20450;-70
2023/11/13 10:45:53;;;;;;;5.80;1.93;;;14.20;17.00;;;;;;4993535;28;20471;-71
2023/11/13 10:48:30;;;;;;;4.23;1.53;;;14.20;17.00;;;;;;4993558;28;20412;-70
2023/11/13 10:50:58;;;;;;;5.20;2.10;;;14.30;17.10;;;;;;4993641;28;20416;-70
2023/11/13 10:53:25;;;;;;;3.30;1.70;;;14.30;16.90;;;;;;4993300;28;20436;-70
2023/11/13 10:55:51;;;;;;;5.97;1.97;;;14.40;16.20;;;;;;4993628;28;20416;-70
2023/11/13 10:58:16;;;;;;;6.67;2.33;;;14.60;16.50;;;;;;4993343;28;20522;-70
2023/11/13 11:00:42;;;;;;;4.20;2.30;;;14.60;15.20;;;;;;4993266;28;20547;-70
2023/11/13 11:03:10;;;;;;;3.80;1.90;;;14.60;15.30;;;;;;4993145;28;20769;-70
2023/11/13 11:05:39;;;;;;;5.07;2.47;;;14.60;15.60;;;;;;4993163;28;20991;-71
2023/11/13 11:08:05;;;;;;;3.87;1.80;;;14.60;15.00;;;;;;4993279;28;20777;-71
2023/11/13 11:10:31;;;;;;;7.80;2.57;;;14.60;15.30;;;;;;4993213;28;20418;-70
2023/11/13 11:13:10;;;;;;;4.90;2.13;;;14.50;17.20;;;;;;4992951;28;20195;-70
2023/11/13 11:16:18;;;;;;;6.77;2.00;;;14.40;19.60;;;;;;4993250;28;20415;-70
2023/11/13 11:18:52;;;;;;;3.07;1.90;;;14.30;21.30;;;;;;4993263;28;20404;-72
2023/11/13 11:21:43;;;;;;;3.50;1.80;;;14.20;23.80;;;;;;4993128;28;20411;-70
2023/11/13 11:24:44;;;;;;;7.40;3.30;;;14.30;24.30;;;;;;4992885;28;20428;-70
2023/11/13 11:27:10;;;;;;;6.30;2.60;;;14.30;23.40;;;;;;4949840;28;20518;-71
2023/11/13 11:29:43;;;;;;;4.27;1.90;;;14.30;22.60;;;;;;4992910;28;20789;-71
2023/11/13 11:32:19;;;;;;;6.57;2.67;;;14.40;23.00;;;;;;4992565;28;20458;-71
2023/11/13 11:34:58;;;;;;;9.33;3.00;;;14.50;22.40;;;;;;4992864;28;20411;-71
2023/11/13 11:37:24;;;;;;;7.03;1.50;;;14.60;21.50;;;;;;4992882;28;20494;-72
2023/11/13 11:39:55;;;;;;;7.50;1.80;;;14.50;19.80;;;;;;4992678;28;20451;-73
2023/11/13 11:42:28;;;;;;;2.87;1.10;;;14.60;21.40;;;;;;4992505;28;20443;-69
2023/11/13 11:44:54;;;;;;;5.93;1.67;;;14.70;20.00;;;;;;4992772;28;20785;-71
2023/11/13 11:47:25;;;;;;;2.70;1.43;;;14.70;19.70;;;;;;4992682;28;20428;-71
2023/11/13 11:49:58;;;;;;;3.77;1.50;;;14.80;19.10;;;;;;4992940;28;20182;-71
2023/11/13 11:52:54;;;;;;;2.97;1.30;;;14.80;18.90;;;;;;4992599;28;20444;-72
2023/11/13 11:55:30;;;;;;;4.20;2.00;;;14.80;19.60;;;;;;4992727;28;20419;-71
2023/11/13 11:57:59;;;;;;;3.13;1.80;;;14.90;20.30;;;;;;4992850;28;20423;-70
2023/11/13 12:00:26;;;;;;;2.20;1.17;;;14.90;20.10;;;;;;4992432;28;20416;-69
2023/11/13 12:02:56;;;;;;;5.33;1.73;;;14.90;19.60;;;;;;4992214;28;20446;-70
2023/11/13 12:05:24;;;;;;;4.10;1.30;;;14.90;19.50;;;;;;4992520;28;20463;-72
2023/11/13 12:07:51;;;;;;;2.60;1.37;;;14.90;19.90;;;;;;4992420;28;20503;-71
2023/11/13 12:10:23;;;;;;;3.30;1.10;;;14.90;20.00;;;;;;4992261;28;20419;-71
2023/11/13 12:12:50;;;;;;;2.50;1.50;;;14.90;18.70;;;;;;4991570;28;20478;-71
2023/11/13 12:15:17;;;;;;;2.27;1.40;;;15.00;18.60;;;;;;4992864;28;20912;-71
2023/11/13 12:17:46;;;;;;;3.87;1.07;;;15.00;18.90;;;;;;4992458;28;20436;-71
2023/11/13 12:20:26;;;;;;;4.00;1.30;;;15.00;18.30;;;;;;4992331;28;20424;-72
2023/11/13 12:22:55;;;;;;;2.00;0.90;;;15.00;18.50;;;;;;4992423;28;20491;-71
2023/11/13 12:25:24;;;;;;;3.20;1.17;;;15.00;18.50;;;;;;4992418;28;20456;-71
2023/11/13 12:27:55;;;;;;;2.53;1.43;;;;;;;;;;4992555;28;20408;-72
2023/11/13 12:30:21;;;;;;;2.67;1.30;;;14.80;15.40;;;;;;4992341;28;20407;-71
2023/11/13 12:32:48;;;;;;;2.57;1.47;;;14.80;16.30;;;;;;4992107;28;20458;-71
2023/11/13 12:35:17;;;;;;;7.13;1.67;;;14.80;16.70;;;;;;4992189;28;20422;-71
2023/11/13 12:37:44;;;;;;;2.97;1.10;;;14.80;17.30;;;;;;4992162;28;20467;-71
2023/11/13 12:40:16;;;;;;;3.40;1.83;;;14.70;17.70;;;;;;4992258;28;20496;-71
2023/11/13 12:42:43;;;;;;;3.53;1.40;;;14.80;18.10;;;;;;4991964;28;20452;-71
2023/11/13 12:45:18;;;;;;;2.30;1.00;;;14.70;17.30;;;;;;4992044;28;20593;-72
2023/11/13 12:47:52;;;;;;;5.37;1.83;;;14.70;18.10;;;;;;4992463;28;20491;-70
2023/11/13 12:50:19;;;;;;;2.37;1.33;;;14.80;18.90;;;;;;4991129;28;20412;-71
2023/11/13 12:52:50;;;;;;;2.63;1.53;;;14.70;17.70;;;;;;4991874;28;20436;-71